Time;durP1;ratioP1;P1;durP2;ratioP2;P2;SDS_P1;SDS_P2;PMS_P1;PMS_P2;Temp;Humidity;BMP_temperature;BMP_pressure;BME280_temperature;BME280_humidity;BME280_pressure;Samples;Min_cycle;Max_cycle;Signal;HPM_P1;HPM_P2
2024/01/20 00:01:31;;;;;;;;;;;;;;;;;;5072460;28;19982;-78
2024/01/20 00:03:57;;;;;;;;;;;;;;;;;;5076811;28;20367;-78
2024/01/20 00:06:23;;;;;;;;;;;;;;;;;;5069693;28;19921;-78
2024/01/20 00:08:49;;;;;;;;;;;;;;;;;;5078782;28;19940;-78
2024/01/20 00:11:14;;;;;;;;;;;;;;;;;;5069289;28;19909;-78
2024/01/20 00:13:40;;;;;;;;;;;;;;;;;;5079979;28;19923;-78
2024/01/20 00:16:06;;;;;;;;;;;;;;;;;;5061318;28;19912;-78
2024/01/20 00:18:32;;;;;;;;;;;;;;;;;;5079890;28;20027;-78
2024/01/20 00:20:58;;;;;;;;;;;;;;;;;;5084449;28;20381;-78
2024/01/20 00:23:24;;;;;;;;;;;;;;;;;;5072541;28;20263;-79
2024/01/20 00:25:49;;;;;;;;;;;;;;;;;;5072228;28;20467;-78
2024/01/20 00:28:18;;;;;;;;;;;;;;;;;;5068769;28;19985;-78
2024/01/20 00:30:43;;;;;;;;;;;;;;;;;;5072061;28;19966;-79
2024/01/20 00:33:09;;;;;;;;;;;;;;;;;;5070261;28;19916;-78
2024/01/20 00:35:36;;;;;;;;;;;;;;;;;;5070295;28;19923;-78
2024/01/20 00:38:02;;;;;;;;;;;;;;;;;;5073525;28;19947;-78
2024/01/20 00:40:28;;;;;;;;;;;;;;;;;;5081108;28;20367;-78
2024/01/20 00:42:54;;;;;;;;;;;;;;;;;;5086190;28;20311;-79
2024/01/20 00:45:19;;;;;;;;;;;;;;;;;;5070874;28;19956;-78
2024/01/20 00:47:45;;;;;;;;;;;;;;;;;;5069576;28;19919;-79
2024/01/20 00:50:11;;;;;;;;;;;;;;;;;;5087512;28;19919;-78
2024/01/20 00:52:37;;;;;;;;;;;;;;;;;;5077281;28;19965;-78
2024/01/20 00:55:03;;;;;;;;;;;;;;;;;;5082941;28;19920;-78
2024/01/20 00:57:29;;;;;;;;;;;;;;;;;;5076068;28;19917;-78
2024/01/20 00:59:55;;;;;;;;;;;;;;;;;;5083609;28;20115;-79
2024/01/20 01:02:21;;;;;;;;;;;;;;;;;;5075533;28;19920;-78
2024/01/20 01:04:47;;;;;;;;;;;;;;;;;;5076509;28;19920;-78
2024/01/20 01:07:12;;;;;;;;;;;;;;;;;;5077705;28;19913;-78
2024/01/20 01:09:38;;;;;;;;;;;;;;;;;;5085662;28;19959;-78
2024/01/20 01:12:04;;;;;;;;;;;;;;;;;;5077978;28;20557;-78
2024/01/20 01:14:30;;;;;;;;;;;;;;;;;;5073828;28;20401;-78
2024/01/20 01:16:56;;;;;;;;;;;;;;;;;;5071973;28;19912;-78
2024/01/20 01:19:23;;;;;;;;;;;;;;;;;;5084563;28;19920;-79
2024/01/20 01:21:48;;;;;;;;;;;;;;;;;;5079972;28;19963;-78
2024/01/20 01:24:14;;;;;;;;;;;;;;;;;;5077932;28;20009;-78
2024/01/20 01:26:40;;;;;;;;;;;;;;;;;;5073040;28;19908;-78
2024/01/20 01:29:06;;;;;;;;;;;;;;;;;;5072908;28;19919;-78
2024/01/20 01:31:32;;;;;;;;;;;;;;;;;;5075788;28;20283;-78
2024/01/20 01:33:58;;;;;;;;;;;;;;;;;;5076131;28;20019;-78
2024/01/20 01:36:24;;;;;;;;;;;;;;;;;;5084686;28;19931;-78
2024/01/20 01:38:50;;;;;;;;;;;;;;;;;;5072125;28;19955;-78
2024/01/20 01:41:15;;;;;;;;;;;;;;;;;;5086814;28;19923;-78
2024/01/20 01:43:41;;;;;;;;;;;;;;;;;;5076214;28;19913;-78
2024/01/20 01:46:07;;;;;;;;;;;;;;;;;;5086904;28;20374;-78
2024/01/20 01:48:33;;;;;;;;;;;;;;;;;;5085401;28;20345;-78
2024/01/20 01:50:59;;;;;;;;;;;;;;;;;;5088413;28;19912;-78
2024/01/20 01:53:25;;;;;;;;;;;;;;;;;;5091408;28;19912;-78
2024/01/20 01:55:51;;;;;;;;;;;;;;;;;;5080831;28;19998;-78
2024/01/20 01:58:17;;;;;;;;;;;;;;;;;;5088081;28;20066;-78
2024/01/20 02:00:43;;;;;;;;;;;;;;;;;;5072134;28;19912;-78
2024/01/20 02:03:09;;;;;;;;;;;;;;;;;;5081765;28;19962;-78
2024/01/20 02:05:35;;;;;;;;;;;;;;;;;;5074153;28;20089;-78
2024/01/20 02:08:01;;;;;;;;;;;;;;;;;;5076019;28;20000;-78
2024/01/20 02:10:27;;;;;;;;;;;;;;;;;;5080305;28;19919;-78
2024/01/20 02:12:52;;;;;;;;;;;;;;;;;;5081188;28;19912;-78
2024/01/20 02:15:18;;;;;;;;;;;;;;;;;;5082809;28;19916;-78
2024/01/20 02:17:44;;;;;;;;;;;;;;;;;;5071946;28;19919;-78
2024/01/20 02:20:10;;;;;;;;;;;;;;;;;;5079882;28;19920;-78
2024/01/20 02:22:36;;;;;;;;;;;;;;;;;;5077898;28;19923;-78
2024/01/20 02:25:02;;;;;;;;;;;;;;;;;;5074937;28;20398;-78
2024/01/20 02:27:27;;;;;;;;;;;;;;;;;;5071900;28;20453;-78
2024/01/20 02:29:53;;;;;;;;;;;;;;;;;;5077714;28;19934;-78
2024/01/20 02:32:19;;;;;;;;;;;;;;;;;;5075251;28;19956;-78
2024/01/20 02:34:45;;;;;;;;;;;;;;;;;;5078407;28;19962;-79
2024/01/20 02:37:11;;;;;;;;;;;;;;;;;;5078316;28;19924;-79
2024/01/20 02:39:37;;;;;;;;;;;;;;;;;;5081563;28;19943;-79
2024/01/20 02:42:03;;;;;;;;;;;;;;;;;;5090104;28;20386;-79
2024/01/20 02:44:29;;;;;;;;;;;;;;;;;;5086400;28;19995;-79
2024/01/20 02:46:56;;;;;;;;;;;;;;;;;;5085276;28;20003;-79
2024/01/20 02:49:22;;;;;;;;;;;;;;;;;;5057339;28;20034;-79
2024/01/20 02:51:48;;;;;;;;;;;;;;;;;;5086031;28;20434;-79
2024/01/20 02:54:14;;;;;;;;;;;;;;;;;;5088148;28;19916;-79
2024/01/20 02:56:40;;;;;;;;;;;;;;;;;;5088820;28;19946;-79
2024/01/20 02:59:06;;;;;;;;;;;;;;;;;;5081019;28;19912;-79
2024/01/20 03:01:32;;;;;;;;;;;;;;;;;;5072308;28;19919;-79
2024/01/20 03:03:57;;;;;;;;;;;;;;;;;;5078345;28;19961;-79
2024/01/20 03:06:23;;;;;;;;;;;;;;;;;;5072604;28;19916;-79
2024/01/20 03:08:49;;;;;;;;;;;;;;;;;;5072310;28;19921;-79
2024/01/20 03:11:15;;;;;;;;;;;;;;;;;;5086112;28;19912;-79
2024/01/20 03:13:41;;;;;;;;;;;;;;;;;;5073105;28;20018;-79
2024/01/20 03:16:08;;;;;;;;;;;;;;;;;;5075142;28;20355;-79
2024/01/20 03:18:34;;;;;;;;;;;;;;;;;;5076883;28;19916;-79
2024/01/20 03:20:59;;;;;;;;;;;;;;;;;;5088213;28;20042;-79
2024/01/20 03:23:25;;;;;;;;;;;;;;;;;;5070270;28;19916;-79
2024/01/20 03:25:51;;;;;;;;;;;;;;;;;;5071862;28;19916;-79
2024/01/20 03:28:17;;;;;;;;;;;;;;;;;;5069503;28;19913;-79
2024/01/20 03:30:43;;;;;;;;;;;;;;;;;;5071066;28;20038;-79
2024/01/20 03:33:09;;;;;;;;;;;;;;;;;;5079355;28;19916;-80
2024/01/20 03:35:35;;;;;;;;;;;;;;;;;;5075687;28;20386;-78
2024/01/20 03:38:00;;;;;;;;;;;;;;;;;;5074284;28;19943;-80
2024/01/20 03:40:26;;;;;;;;;;;;;;;;;;5085075;28;19919;-79
2024/01/20 03:42:52;;;;;;;;;;;;;;;;;;5081493;28;19975;-79
2024/01/20 03:45:18;;;;;;;;;;;;;;;;;;5070862;28;19932;-80
2024/01/20 03:47:44;;;;;;;;;;;;;;;;;;5069033;28;19912;-79
2024/01/20 03:50:10;;;;;;;;;;;;;;;;;;5079376;28;19955;-79
2024/01/20 03:52:35;;;;;;;;;;;;;;;;;;5078905;28;19923;-79
2024/01/20 03:55:01;;;;;;;;;;;;;;;;;;5073343;28;20433;-79
2024/01/20 03:57:27;;;;;;;;;;;;;;;;;;5070937;28;19972;-79
2024/01/20 03:59:53;;;;;;;;;;;;;;;;;;5078113;28;19923;-80
2024/01/20 04:02:19;;;;;;;;;;;;;;;;;;5072691;28;19916;-79
2024/01/20 04:04:45;;;;;;;;;;;;;;;;;;5080160;28;19928;-79
2024/01/20 04:07:10;;;;;;;;;;;;;;;;;;5077550;28;19939;-79
2024/01/20 04:09:36;;;;;;;;;;;;;;;;;;5070051;28;19995;-79
2024/01/20 04:12:02;;;;;;;;;;;;;;;;;;5072363;28;19921;-79
2024/01/20 04:14:28;;;;;;;;;;;;;;;;;;5073903;28;20403;-79
2024/01/20 04:16:54;;;;;;;;;;;;;;;;;;5075421;28;19919;-79
2024/01/20 04:19:20;;;;;;;;;;;;;;;;;;5069248;28;19912;-79
2024/01/20 04:21:45;;;;;;;;;;;;;;;;;;5078504;28;20055;-79
2024/01/20 04:24:11;;;;;;;;;;;;;;;;;;5069033;28;19913;-79
2024/01/20 04:26:37;;;;;;;;;;;;;;;;;;5082762;28;19956;-79
2024/01/20 04:29:03;;;;;;;;;;;;;;;;;;5084392;28;19973;-78
2024/01/20 04:31:29;;;;;;;;;;;;;;;;;;5085348;28;20014;-78
2024/01/20 04:33:55;;;;;;;;;;;;;;;;;;5074671;28;19970;-78
2024/01/20 04:36:21;;;;;;;;;;;;;;;;;;5077795;28;19920;-78
2024/01/20 04:38:47;;;;;;;;;;;;;;;;;;5086511;28;19919;-78
2024/01/20 04:41:13;;;;;;;;;;;;;;;;;;5069777;28;19951;-79
2024/01/20 04:43:39;;;;;;;;;;;;;;;;;;5079211;28;19912;-78
2024/01/20 04:46:05;;;;;;;;;;;;;;;;;;5072247;28;20418;-79
2024/01/20 04:48:31;;;;;;;;;;;;;;;;;;5064356;28;19916;-78
2024/01/20 04:50:56;;;;;;;;;;;;;;;;;;5081495;28;19916;-78
2024/01/20 04:53:22;;;;;;;;;;;;;;;;;;5072690;28;20308;-79
2024/01/20 04:55:48;;;;;;;;;;;;;;;;;;5075426;28;19912;-78
2024/01/20 04:58:14;;;;;;;;;;;;;;;;;;5077945;28;19961;-79
2024/01/20 05:00:40;;;;;;;;;;;;;;;;;;5074018;28;19916;-79
2024/01/20 05:03:06;;;;;;;;;;;;;;;;;;5082230;28;19924;-79
2024/01/20 05:05:32;;;;;;;;;;;;;;;;;;5078565;28;19913;-79
2024/01/20 05:07:58;;;;;;;;;;;;;;;;;;5070249;28;19912;-79
2024/01/20 05:10:24;;;;;;;;;;;;;;;;;;5069983;28;19942;-79
2024/01/20 05:12:50;;;;;;;;;;;;;;;;;;5084987;28;19916;-79
2024/01/20 05:15:16;;;;;;;;;;;;;;;;;;5073318;28;20359;-79
2024/01/20 05:17:42;;;;;;;;;;;;;;;;;;5088743;28;20382;-79
2024/01/20 05:20:08;;;;;;;;;;;;;;;;;;5072366;28;19916;-80
2024/01/20 05:22:33;;;;;;;;;;;;;;;;;;5075182;28;19924;-79
2024/01/20 05:24:59;;;;;;;;;;;;;;;;;;5078145;28;19999;-80
2024/01/20 05:27:25;;;;;;;;;;;;;;;;;;5084291;28;19942;-79
2024/01/20 05:29:51;;;;;;;;;;;;;;;;;;5078250;28;19970;-79
2024/01/20 05:32:17;;;;;;;;;;;;;;;;;;5071163;28;19913;-79
2024/01/20 05:34:43;;;;;;;;;;;;;;;;;;5071958;28;20381;-79
2024/01/20 05:37:09;;;;;;;;;;;;;;;;;;5076684;28;20353;-78
2024/01/20 05:39:34;;;;;;;;;;;;;;;;;;5075072;28;19919;-78
2024/01/20 05:42:00;;;;;;;;;;;;;;;;;;5082880;28;20270;-78
2024/01/20 05:44:26;;;;;;;;;;;;;;;;;;5072181;28;20461;-79
2024/01/20 05:46:52;;;;;;;;;;;;;;;;;;5083200;28;19997;-78
2024/01/20 05:49:18;;;;;;;;;;;;;;;;;;5072420;28;19913;-78
2024/01/20 05:51:44;;;;;;;;;;;;;;;;;;5087225;28;19920;-78
2024/01/20 05:54:10;;;;;;;;;;;;;;;;;;5085464;28;20011;-79
2024/01/20 05:56:36;;;;;;;;;;;;;;;;;;5090765;28;20006;-79
2024/01/20 05:59:01;;;;;;;;;;;;;;;;;;5085034;28;20375;-79
2024/01/20 06:01:27;;;;;;;;;;;;;;;;;;5073486;28;20352;-79
2024/01/20 06:03:53;;;;;;;;;;;;;;;;;;5074895;28;20313;-79
2024/01/20 06:06:19;;;;;;;;;;;;;;;;;;5071616;28;19916;-78
2024/01/20 06:08:45;;;;;;;;;;;;;;;;;;5076032;28;19912;-79
2024/01/20 06:11:11;;;;;;;;;;;;;;;;;;5078665;28;19916;-79
2024/01/20 06:13:37;;;;;;;;;;;;;;;;;;5074891;28;19974;-78
2024/01/20 06:16:03;;;;;;;;;;;;;;;;;;5077788;28;19928;-79
2024/01/20 06:18:29;;;;;;;;;;;;;;;;;;5075158;28;19966;-79
2024/01/20 06:20:55;;;;;;;;;;;;;;;;;;5083592;28;20525;-79
2024/01/20 06:23:21;;;;;;;;;;;;;;;;;;5074580;28;20476;-79
2024/01/20 06:25:46;;;;;;;;;;;;;;;;;;5071594;28;19919;-79
2024/01/20 06:28:12;;;;;;;;;;;;;;;;;;5073597;28;19924;-79
2024/01/20 06:30:38;;;;;;;;;;;;;;;;;;5078859;28;19909;-79
2024/01/20 06:33:04;;;;;;;;;;;;;;;;;;5078926;28;19920;-77
2024/01/20 06:35:30;;;;;;;;;;;;;;;;;;5082706;28;19908;-79
2024/01/20 06:37:57;;;;;;;;;;;;;;;;;;5071234;28;20390;-78
2024/01/20 06:40:23;;;;;;;;;;;;;;;;;;5074187;28;19916;-79
2024/01/20 06:42:49;;;;;;;;;;;;;;;;;;5077057;28;19920;-80
2024/01/20 06:45:15;;;;;;;;;;;;;;;;;;5079185;28;20028;-78
2024/01/20 06:47:41;;;;;;;;;;;;;;;;;;5077187;28;20046;-78
2024/01/20 06:50:08;;;;;;;;;;;;;;;;;;5070866;28;20387;-80
2024/01/20 06:52:34;;;;;;;;;;;;;;;;;;5072432;28;19924;-78
2024/01/20 06:55:00;;;;;;;;;;;;;;;;;;5073015;28;19912;-77
2024/01/20 06:57:25;;;;;;;;;;;;;;;;;;5074315;28;19970;-77
2024/01/20 06:59:51;;;;;;;;;;;;;;;;;;5075213;28;19920;-79
2024/01/20 07:02:17;;;;;;;;;;;;;;;;;;5075655;28;19916;-79
2024/01/20 07:04:43;;;;;;;;;;;;;;;;;;5071410;28;19914;-79
2024/01/20 07:07:09;;;;;;;;;;;;;;;;;;5075423;28;19924;-78
2024/01/20 07:09:35;;;;;;;;;;;;;;;;;;5070582;28;19912;-80
2024/01/20 07:12:01;;;;;;;;;;;;;;;;;;5070455;28;19923;-79
2024/01/20 07:14:26;;;;;;;;;;;;;;;;;;5073058;28;20397;-79
2024/01/20 07:16:52;;;;;;;;;;;;;;;;;;5084832;28;19965;-80
2024/01/20 07:19:18;;;;;;;;;;;;;;;;;;5096978;28;20304;-79
2024/01/20 07:21:44;;;;;;;;;;;;;;;;;;5078332;28;20350;-80
2024/01/20 07:24:10;;;;;;;;;;;;;;;;;;5073006;28;19919;-80
2024/01/20 07:26:36;;;;;;;;;;;;;;;;;;5076094;28;19916;-80
2024/01/20 07:29:02;;;;;;;;;;;;;;;;;;5076853;28;19951;-80
2024/01/20 07:31:28;;;;;;;;;;;;;;;;;;5060865;28;19923;-79
2024/01/20 07:33:53;;;;;;;;;;;;;;;;;;5073994;28;19995;-80
2024/01/20 07:36:19;;;;;;;;;;;;;;;;;;5078198;28;19923;-80
2024/01/20 07:38:45;;;;;;;;;;;;;;;;;;5071231;28;20293;-80
2024/01/20 07:41:11;;;;;;;;;;;;;;;;;;5073256;28;19960;-79
2024/01/20 07:43:38;;;;;;;;;;;;;;;;;;5082013;28;21242;-81
2024/01/20 07:46:04;;;;;;;;;;;;;;;;;;5082605;28;20374;-79
2024/01/20 07:48:30;;;;;;;;;;;;;;;;;;5069734;28;19919;-81
2024/01/20 07:50:56;;;;;;;;;;;;;;;;;;5071752;28;19991;-79
2024/01/20 07:53:35;;;;;;;;;;;;;;;;;;;;;
2024/01/20 07:56:03;;;;;;;;;;;;;;;;;;5072283;28;20520;-84
2024/01/20 07:58:29;;;;;;;;;;;;;;;;;;5073825;28;20010;-84
2024/01/20 08:00:55;;;;;;;;;;;;;;;;;;5079157;28;20014;-84
2024/01/20 08:03:21;;;;;;;;;;;;;;;;;;5072654;28;20357;-82
2024/01/20 08:05:47;;;;;;;;;;;;;;;;;;5076583;28;19916;-83
2024/01/20 08:08:13;;;;;;;;;;;;;;;;;;5069850;28;19978;-80
2024/01/20 08:10:39;;;;;;;;;;;;;;;;;;5071226;28;20002;-87
2024/01/20 08:13:05;;;;;;;;;;;;;;;;;;5072841;28;19912;-81
2024/01/20 08:15:31;;;;;;;;;;;;;;;;;;5072895;28;20314;-81
2024/01/20 08:17:57;;;;;;;;;;;;;;;;;;5079502;28;20235;-81
2024/01/20 08:20:22;;;;;;;;;;;;;;;;;;5072912;28;19917;-81
2024/01/20 08:22:48;;;;;;;;;;;;;;;;;;5069573;28;20510;-81
2024/01/20 08:25:15;;;;;;;;;;;;;;;;;;5071498;28;19970;-83
2024/01/20 08:27:41;;;;;;;;;;;;;;;;;;5070428;28;19920;-80
2024/01/20 08:30:07;;;;;;;;;;;;;;;;;;5076840;28;19951;-80
2024/01/20 08:32:33;;;;;;;;;;;;;;;;;;5068577;28;19947;-81
2024/01/20 08:34:59;;;;;;;;;;;;;;;;;;5075686;28;20380;-86
2024/01/20 08:37:25;;;;;;;;;;;;;;;;;;5067569;28;20426;-81
2024/01/20 08:39:50;;;;;;;;;;;;;;;;;;5074943;28;20293;-81
2024/01/20 08:42:17;;;;;;;;;;;;;;;;;;5069922;28;19916;-81
2024/01/20 08:44:43;;;;;;;;;;;;;;;;;;5069347;28;19959;-80
2024/01/20 08:47:09;;;;;;;;;;;;;;;;;;5081123;28;19912;-81
2024/01/20 08:49:35;;;;;;;;;;;;;;;;;;5079722;28;19986;-80
2024/01/20 08:52:01;;;;;;;;;;;;;;;;;;5077680;28;19982;-82
2024/01/20 08:54:26;;;;;;;;;;;;;;;;;;5059122;28;19916;-81
2024/01/20 08:56:52;;;;;;;;;;;;;;;;;;5074289;28;20333;-81
2024/01/20 08:59:19;;;;;;;;;;;;;;;;;;5075327;28;19935;-82
2024/01/20 09:01:45;;;;;;;;;;;;;;;;;;5072715;28;20075;-81
2024/01/20 09:04:11;;;;;;;;;;;;;;;;;;5071155;28;20356;-80
2024/01/20 09:06:36;;;;;;;;;;;;;;;;;;5073355;28;19912;-81
2024/01/20 09:09:02;;;;;;;;;;;;;;;;;;5070084;28;20011;-81
2024/01/20 09:11:28;;;;;;;;;;;;;;;;;;5072377;28;19917;-81
2024/01/20 09:13:54;;;;;;;;;;;;;;;;;;5088374;28;19921;-82
2024/01/20 09:16:20;;;;;;;;;;;;;;;;;;5079553;28;19919;-81
2024/01/20 09:18:46;;;;;;;;;;;;;;;;;;5079556;28;19974;-82
2024/01/20 09:21:12;;;;;;;;;;;;;;;;;;5081303;28;19952;-81
2024/01/20 09:23:39;;;;;;;;;;;;;;;;;;5095349;28;19912;-81
2024/01/20 09:26:04;;;;;;;;;;;;;;;;;;5091847;28;19919;-82
2024/01/20 09:28:30;;;;;;;;;;;;;;;;;;5076914;28;19916;-81
2024/01/20 09:30:56;;;;;;;;;;;;;;;;;;5075091;28;19969;-80
2024/01/20 09:33:22;;;;;;;;;;;;;;;;;;5083904;28;19912;-81
2024/01/20 09:35:48;;;;;;;;;;;;;;;;;;5080875;28;20441;-80
2024/01/20 09:38:14;;;;;;;;;;;;;;;;;;5084254;28;20328;-81
2024/01/20 09:40:40;;;;;;;;;;;;;;;;;;5084174;28;20531;-85
2024/01/20 09:43:05;;;;;;;;;;;;;;;;;;5064219;28;19939;-80
2024/01/20 09:45:31;;;;;;;;;;;;;;;;;;5078738;28;19912;-81
2024/01/20 09:47:57;;;;;;;;;;;;;;;;;;5088066;28;19912;-79
2024/01/20 09:50:23;;;;;;;;;;;;;;;;;;5097985;28;19912;-80
2024/01/20 09:52:49;;;;;;;;;;;;;;;;;;5084282;28;20503;-88
2024/01/20 09:55:15;;;;;;;;;;;;;;;;;;5093914;28;19920;-80
2024/01/20 09:57:41;;;;;;;;;;;;;;;;;;5090724;28;19959;-77
2024/01/20 10:00:06;;;;;;;;;;;;;;;;;;5083701;28;20004;-77
2024/01/20 10:02:32;;;;;;;;;;;;;;;;;;5081669;28;19936;-77
2024/01/20 10:04:59;;;;;;;;;;;;;;;;;;5078802;28;20443;-83
2024/01/20 10:07:24;;;;;;;;;;;;;;;;;;5061536;28;19912;-80
2024/01/20 10:09:50;;;;;;;;;;;;;;;;;;5071659;28;19921;-78
2024/01/20 10:12:16;;;;;;;;;;;;;;;;;;5078377;28;19928;-76
2024/01/20 10:14:42;;;;;;;;;;;;;;;;;;5079787;28;19912;-75
2024/01/20 10:17:08;;;;;;;;;;;;;;;;;;5077592;28;20012;-77
2024/01/20 10:19:34;;;;;;;;;;;;;;;;;;5077325;28;19927;-76
2024/01/20 10:22:00;;;;;;;;;;;;;;;;;;5083751;28;20242;-76
2024/01/20 10:24:25;;;;;;;;;;;;;;;;;;5093347;28;19999;-75
2024/01/20 10:26:52;;;;;;;;;;;;;;;;;;5078839;28;19923;-75
2024/01/20 10:29:18;;;;;;;;;;;;;;;;;;5091266;28;19917;-75
2024/01/20 10:31:44;;;;;;;;;;;;;;;;;;5077728;28;19948;-75
2024/01/20 10:34:10;;;;;;;;;;;;;;;;;;5085956;28;20030;-74
2024/01/20 10:36:36;;;;;;;;;;;;;;;;;;5091311;28;19920;-75
2024/01/20 10:39:02;;;;;;;;;;;;;;;;;;5088484;28;19922;-74
2024/01/20 10:41:28;;;;;;;;;;;;;;;;;;5082187;28;19951;-75
2024/01/20 10:43:54;;;;;;;;;;;;;;;;;;5080837;28;20419;-74
2024/01/20 10:46:20;;;;;;;;;;;;;;;;;;5081531;28;20577;-75
2024/01/20 10:48:46;;;;;;;;;;;;;;;;;;5094122;28;19926;-75
2024/01/20 10:51:11;;;;;;;;;;;;;;;;;;5082827;28;19919;-75
2024/01/20 10:53:37;;;;;;;;;;;;;;;;;;5074887;28;19913;-75
2024/01/20 10:56:04;;;;;;;;;;;;;;;;;;5087924;28;19922;-75
2024/01/20 10:58:30;;;;;;;;;;;;;;;;;;5086153;28;20613;-75
2024/01/20 11:00:55;;;;;;;;;;;;;;;;;;5074956;28;19921;-76
2024/01/20 11:03:21;;;;;;;;;;;;;;;;;;5096079;28;19961;-76
2024/01/20 11:05:48;;;;;;;;;;;;;;;;;;5085550;28;19916;-77
2024/01/20 11:08:14;;;;;;;;;;;;;;;;;;5087151;28;20370;-77
2024/01/20 11:10:40;;;;;;;;;;;;;;;;;;5075115;28;19913;-77
2024/01/20 11:13:06;;;;;;;;;;;;;;;;;;5082329;28;19912;-76
2024/01/20 11:15:32;;;;;;;;;;;;;;;;;;5084898;28;19999;-79
2024/01/20 11:17:58;;;;;;;;;;;;;;;;;;5073317;28;19932;-82
2024/01/20 11:20:24;;;;;;;;;;;;;;;;;;5078035;28;20202;-82
2024/01/20 11:22:50;;;;;;;;;;;;;;;;;;5079623;28;19916;-81
2024/01/20 11:25:18;;;;;;;;;;;;;;;;;;5074101;28;19917;-82
2024/01/20 11:27:44;;;;;;;;;;;;;;;;;;5085370;28;20198;-84
2024/01/20 11:30:09;;;;;;;;;;;;;;;;;;5094719;28;20378;-83
2024/01/20 11:32:35;;;;;;;;;;;;;;;;;;5079743;28;19951;-76
2024/01/20 11:35:01;;;;;;;;;;;;;;;;;;5075880;28;19916;-76
2024/01/20 11:37:27;;;;;;;;;;;;;;;;;;5097151;28;20305;-76
2024/01/20 11:39:53;;;;;;;;;;;;;;;;;;5084720;28;20003;-76
2024/01/20 11:42:19;;;;;;;;;;;;;;;;;;5090397;28;20151;-76
2024/01/20 11:44:45;;;;;;;;;;;;;;;;;;5071957;28;19920;-76
2024/01/20 11:47:10;;;;;;;;;;;;;;;;;;5079289;28;19918;-76
2024/01/20 11:49:36;;;;;;;;;;;;;;;;;;5081621;28;19916;-76
2024/01/20 11:52:02;;;;;;;;;;;;;;;;;;5078976;28;19924;-80
2024/01/20 11:54:28;;;;;;;;;;;;;;;;;;5073099;28;19943;-77
2024/01/20 11:56:54;;;;;;;;;;;;;;;;;;5078147;28;20417;-76
2024/01/20 11:59:20;;;;;;;;;;;;;;;;;;5075845;28;20296;-76
2024/01/20 12:01:46;;;;;;;;;;;;;;;;;;5079939;28;19939;-76
2024/01/20 12:04:11;;;;;;;;;;;;;;;;;;5095906;28;19944;-76
2024/01/20 12:06:37;;;;;;;;;;;;;;;;;;5083137;28;19912;-75
2024/01/20 12:09:03;;;;;;;;;;;;;;;;;;5084364;28;20026;-77
2024/01/20 12:11:29;;;;;;;;;;;;;;;;;;5089638;28;19920;-76
2024/01/20 12:13:55;;;;;;;;;;;;;;;;;;5084492;28;19912;-76
2024/01/20 12:16:21;;;;;;;;;;;;;;;;;;5075716;28;19958;-76
2024/01/20 12:18:47;;;;;;;;;;;;;;;;;;5086469;28;20002;-78
2024/01/20 12:21:13;;;;;;;;;;;;;;;;;;5083752;28;20023;-79
2024/01/20 12:23:39;;;;;;;;;;;;;;;;;;5094584;28;20006;-75
2024/01/20 12:26:05;;;;;;;;;;;;;;;;;;5078261;28;19923;-75
2024/01/20 12:28:31;;;;;;;;;;;;;;;;;;5079858;28;19943;-77
2024/01/20 12:30:56;;;;;;;;;;;;;;;;;;5071500;28;20397;-76
2024/01/20 12:33:22;;;;;;;;;;;;;;;;;;5079560;28;19946;-76
2024/01/20 12:35:48;;;;;;;;;;;;;;;;;;5074197;28;19913;-76
2024/01/20 12:38:14;;;;;;;;;;;;;;;;;;5101570;28;20026;-77
2024/01/20 12:40:40;;;;;;;;;;;;;;;;;;5096187;28;19908;-76
2024/01/20 12:43:06;;;;;;;;;;;;;;;;;;5079713;28;20371;-76
2024/01/20 12:45:32;;;;;;;;;;;;;;;;;;5087415;28;20549;-76
2024/01/20 12:47:58;;;;;;;;;;;;;;;;;;5088785;28;19933;-76
2024/01/20 12:50:24;;;;;;;;;;;;;;;;;;5096992;28;20023;-76
2024/01/20 12:52:51;;;;;;;;;;;;;;;;;;5084734;28;20081;-77
2024/01/20 12:55:17;;;;;;;;;;;;;;;;;;5103584;28;19912;-77
2024/01/20 12:57:43;;;;;;;;;;;;;;;;;;5093651;28;20287;-76
2024/01/20 13:00:09;;;;;;;;;;;;;;;;;;5092489;28;19912;-76
2024/01/20 13:02:35;;;;;;;;;;;;;;;;;;5091251;28;19955;-76
2024/01/20 13:05:01;;;;;;;;;;;;;;;;;;5107573;28;20000;-76
2024/01/20 13:07:27;;;;;;;;;;;;;;;;;;5088136;28;19916;-76
2024/01/20 13:09:53;;;;;;;;;;;;;;;;;;5079610;28;20359;-76
2024/01/20 13:12:19;;;;;;;;;;;;;;;;;;5107178;28;19923;-75
2024/01/20 13:14:45;;;;;;;;;;;;;;;;;;5092864;28;19912;-76
2024/01/20 13:17:11;;;;;;;;;;;;;;;;;;5082557;28;19982;-76
2024/01/20 13:19:37;;;;;;;;;;;;;;;;;;5086703;28;19920;-77
2024/01/20 13:22:03;;;;;;;;;;;;;;;;;;5086310;28;19920;-84
2024/01/20 13:24:29;;;;;;;;;;;;;;;;;;5087301;28;19912;-81
2024/01/20 13:26:55;;;;;;;;;;;;;;;;;;5077436;28;19962;-80
2024/01/20 13:29:21;;;;;;;;;;;;;;;;;;5089983;28;19912;-78
2024/01/20 13:31:50;;;;;;;;;;;;;;;;;;5077934;28;20011;-79
2024/01/20 13:34:15;;;;;;;;;;;;;;;;;;5079678;28;19922;-79
2024/01/20 13:36:41;;;;;;;;;;;;;;;;;;5082486;28;20003;-80
2024/01/20 13:39:08;;;;;;;;;;;;;;;;;;5082202;28;19916;-78
2024/01/20 13:41:33;;;;;;;;;;;;;;;;;;5085812;28;19915;-82
2024/01/20 13:43:59;;;;;;;;;;;;;;;;;;5080331;28;19919;-77
2024/01/20 13:46:25;;;;;;;;;;;;;;;;;;5093032;28;19958;-79
2024/01/20 13:48:51;;;;;;;;;;;;;;;;;;5093890;28;20378;-80
2024/01/20 13:51:17;;;;;;;;;;;;;;;;;;5084339;28;20408;-79
2024/01/20 13:53:43;;;;;;;;;;;;;;;;;;5077382;28;19912;-82
2024/01/20 13:56:11;;;;;;;;;;;;;;;;;;5084551;28;20468;-79
2024/01/20 13:58:37;;;;;;;;;;;;;;;;;;5091998;28;19912;-78
2024/01/20 14:01:04;;;;;;;;;;;;;;;;;;5074923;28;19936;-77
2024/01/20 14:03:30;;;;;;;;;;;;;;;;;;5080053;28;19916;-80
2024/01/20 14:05:56;;;;;;;;;;;;;;;;;;5086960;28;19924;-80
2024/01/20 14:08:23;;;;;;;;;;;;;;;;;;5089969;28;19915;-79
2024/01/20 14:10:49;;;;;;;;;;;;;;;;;;5085865;28;19920;-80
2024/01/20 14:13:15;;;;;;;;;;;;;;;;;;5078420;28;19916;-80
2024/01/20 14:15:40;;;;;;;;;;;;;;;;;;5080887;28;20046;-79
2024/01/20 14:18:08;;;;;;;;;;;;;;;;;;5076210;28;20254;-79
2024/01/20 14:20:34;;;;;;;;;;;;;;;;;;5087521;28;19973;-80
2024/01/20 14:23:00;;;;;;;;;;;;;;;;;;5095360;28;19923;-80
2024/01/20 14:25:26;;;;;;;;;;;;;;;;;;5080942;28;19908;-79
2024/01/20 14:27:52;;;;;;;;;;;;;;;;;;5089374;28;19916;-79
2024/01/20 14:30:18;;;;;;;;;;;;;;;;;;5082906;28;19943;-79
2024/01/20 14:32:44;;;;;;;;;;;;;;;;;;5077780;28;20290;-79
2024/01/20 14:35:10;;;;;;;;;;;;;;;;;;5074066;28;19976;-79
2024/01/20 14:37:36;;;;;;;;;;;;;;;;;;5081431;28;20397;-79
2024/01/20 14:40:04;;;;;;;;;;;;;;;;;;5085096;28;19998;-81
2024/01/20 14:42:30;;;;;;;;;;;;;;;;;;5078463;28;19917;-81
2024/01/20 14:44:56;;;;;;;;;;;;;;;;;;5073911;28;19932;-82
2024/01/20 14:47:22;;;;;;;;;;;;;;;;;;5076865;28;19916;-81
2024/01/20 14:49:48;;;;;;;;;;;;;;;;;;5083563;28;19916;-81
2024/01/20 14:52:14;;;;;;;;;;;;;;;;;;5082636;28;19916;-81
2024/01/20 14:54:40;;;;;;;;;;;;;;;;;;5079923;28;19913;-80
2024/01/20 14:57:06;;;;;;;;;;;;;;;;;;5077215;28;19923;-80
2024/01/20 14:59:32;;;;;;;;;;;;;;;;;;5076432;28;19912;-81
2024/01/20 15:01:58;;;;;;;;;;;;;;;;;;5085207;28;19927;-80
2024/01/20 15:04:23;;;;;;;;;;;;;;;;;;5084168;28;19912;-81
2024/01/20 15:06:49;;;;;;;;;;;;;;;;;;5082058;28;19921;-81
2024/01/20 15:09:15;;;;;;;;;;;;;;;;;;5083141;28;19942;-81
2024/01/20 15:11:41;;;;;;;;;;;;;;;;;;5081037;28;20319;-81
2024/01/20 15:14:07;;;;;;;;;;;;;;;;;;5090136;28;19916;-81
2024/01/20 15:16:33;;;;;;;;;;;;;;;;;;5078181;28;19912;-81
2024/01/20 15:18:59;;;;;;;;;;;;;;;;;;5078793;28;19916;-81
2024/01/20 15:21:25;;;;;;;;;;;;;;;;;;5084285;28;19923;-81
2024/01/20 15:23:51;;;;;;;;;;;;;;;;;;5085698;28;19925;-81
2024/01/20 15:26:17;;;;;;;;;;;;;;;;;;5080635;28;20012;-81
2024/01/20 15:28:43;;;;;;;;;;;;;;;;;;5084410;28;19981;-82
2024/01/20 15:31:09;;;;;;;;;;;;;;;;;;5077291;28;19916;-82
2024/01/20 15:33:35;;;;;;;;;;;;;;;;;;5083765;28;19999;-81
2024/01/20 15:36:00;;;;;;;;;;;;;;;;;;5079507;28;19916;-82
2024/01/20 15:38:26;;;;;;;;;;;;;;;;;;5087940;28;20697;-81
2024/01/20 15:40:55;;;;;;;;;;;;;;;;;;5075797;28;19912;-84
2024/01/20 15:43:21;;;;;;;;;;;;;;;;;;5077323;28;19935;-82
2024/01/20 15:45:47;;;;;;;;;;;;;;;;;;5085669;28;19916;-82
2024/01/20 15:48:13;;;;;;;;;;;;;;;;;;5079734;28;19930;-82
2024/01/20 15:50:39;;;;;;;;;;;;;;;;;;5079503;28;19966;-83
2024/01/20 15:53:04;;;;;;;;;;;;;;;;;;5085195;28;19916;-81
2024/01/20 15:55:30;;;;;;;;;;;;;;;;;;5075888;28;20004;-81
2024/01/20 15:57:56;;;;;;;;;;;;;;;;;;5057145;28;19916;-82
2024/01/20 16:00:22;;;;;;;;;;;;;;;;;;5071702;28;20313;-81
2024/01/20 16:02:48;;;;;;;;;;;;;;;;;;5070032;28;20011;-81
2024/01/20 16:05:14;;;;;;;;;;;;;;;;;;5090215;28;19920;-81
2024/01/20 16:07:40;;;;;;;;;;;;;;;;;;5074412;28;20337;-80
2024/01/20 16:10:06;;;;;;;;;;;;;;;;;;5074896;28;20333;-80
2024/01/20 16:12:32;;;;;;;;;;;;;;;;;;5090725;28;20026;-81
2024/01/20 16:14:58;;;;;;;;;;;;;;;;;;5090434;28;19916;-80
2024/01/20 16:17:24;;;;;;;;;;;;;;;;;;5078976;28;19916;-80
2024/01/20 16:19:50;;;;;;;;;;;;;;;;;;5083179;28;19916;-81
2024/01/20 16:22:16;;;;;;;;;;;;;;;;;;5086245;28;20022;-81
2024/01/20 16:24:42;;;;;;;;;;;;;;;;;;5080121;28;19992;-81
2024/01/20 16:27:08;;;;;;;;;;;;;;;;;;5072701;28;19999;-81
2024/01/20 16:29:33;;;;;;;;;;;;;;;;;;5083369;28;20268;-81
2024/01/20 16:31:59;;;;;;;;;;;;;;;;;;5074389;28;20039;-81
2024/01/20 16:34:25;;;;;;;;;;;;;;;;;;5081113;28;20406;-81
2024/01/20 16:36:52;;;;;;;;;;;;;;;;;;5086434;28;20303;-81